< < Back
Terminal Aerodrome Forecast


Current Version              Previous Versions:   1  2  3  4  5  6  7  8  9  

Terminal Aerodrome Forecast

473
FTUS42 KFFC 231730
TAFAHN
TAF
KAHN 231730Z 2318/2418 VRB03KT P6SM FEW060
     FM232300 VRB03KT P6SM SKC
     FM241400 25006KT P6SM SKC
     FM241700 27008KT P6SM FEW060=

Latest METAR

884
SAUS70 KWBC 240600
MTRAHN
METAR KAHN 240551Z AUTO 10004KT 10SM CLR 14/12 A3005 RMK AO2 SLP172
T01440117 10239 20139 51005


USA.gov is the U.S. government's official web portal to all federal, state and local government web resources and services.